createdAt,value
2024-04-12T00:00:04.079Z,6.00
2024-04-12T00:00:36.744Z,7.80
2024-04-12T00:01:09.499Z,6.70
2024-04-12T00:01:42.676Z,7.00
2024-04-12T00:02:09.274Z,6.30
2024-04-12T00:02:35.875Z,7.60
2024-04-12T00:03:08.654Z,7.00
2024-04-12T00:03:41.445Z,7.50
2024-04-12T00:04:12.470Z,7.50
2024-04-12T00:04:45.128Z,8.40
2024-04-12T00:05:17.800Z,7.10
2024-04-12T00:05:50.504Z,10.20
2024-04-12T00:06:23.143Z,6.50
2024-04-12T00:06:55.840Z,8.20
2024-04-12T00:07:28.509Z,6.90
2024-04-12T00:08:01.202Z,6.70
2024-04-12T00:08:33.988Z,6.30
2024-04-12T00:09:06.764Z,5.60
2024-04-12T00:09:39.507Z,7.10
2024-04-12T00:10:12.212Z,5.20
2024-04-12T00:10:44.881Z,6.40
2024-04-12T00:11:17.700Z,5.10
2024-04-12T00:11:50.567Z,7.00
2024-04-12T00:12:23.398Z,4.50
2024-04-12T00:12:56.082Z,6.80
2024-04-12T00:13:28.754Z,6.00
2024-04-12T00:14:01.433Z,6.00
2024-04-12T00:14:34.151Z,5.50
2024-04-12T00:15:07.047Z,5.60
2024-04-12T00:15:33.477Z,8.00
2024-04-12T00:16:06.186Z,5.50
2024-04-12T00:16:38.860Z,4.60
2024-04-12T00:17:11.551Z,6.20
2024-04-12T00:17:45.087Z,5.90
2024-04-12T00:18:12.649Z,5.90
2024-04-12T00:18:38.944Z,5.50
2024-04-12T00:19:11.802Z,7.40
2024-04-12T00:19:44.471Z,5.30
2024-04-12T00:20:17.169Z,5.90
2024-04-12T00:20:49.874Z,5.20
2024-04-12T00:21:22.534Z,5.30
2024-04-12T00:21:55.199Z,6.40
2024-04-12T00:22:27.890Z,5.60
2024-04-12T00:23:00.564Z,8.30
2024-04-12T00:23:33.286Z,4.60
2024-04-12T00:24:06.041Z,6.70
2024-04-12T00:24:38.787Z,6.80
2024-04-12T00:25:11.472Z,4.00
2024-04-12T00:25:44.170Z,5.80
2024-04-12T00:26:16.829Z,4.20
2024-04-12T00:26:49.572Z,5.00
2024-04-12T00:27:22.304Z,5.40
2024-04-12T00:27:55.006Z,4.00
2024-04-12T00:28:27.708Z,5.70
2024-04-12T00:29:00.389Z,6.40
2024-04-12T00:29:33.123Z,6.20
2024-04-12T00:30:06.177Z,4.70
2024-04-12T00:30:32.451Z,6.20
2024-04-12T00:31:05.114Z,6.00
2024-04-12T00:31:37.801Z,4.50
2024-04-12T00:32:10.498Z,3.90
2024-04-12T00:32:43.282Z,5.60
2024-04-12T00:33:16.157Z,4.50
2024-04-12T00:33:48.984Z,5.50
2024-04-12T00:34:21.644Z,5.50
2024-04-12T00:34:54.322Z,5.60
2024-04-12T00:35:26.995Z,5.70
2024-04-12T00:35:59.696Z,5.80
2024-04-12T00:36:32.360Z,5.80
2024-04-12T00:37:05.061Z,5.70
2024-04-12T00:37:37.735Z,4.80
2024-04-12T00:38:08.835Z,4.00
2024-04-12T00:38:41.558Z,3.70
2024-04-12T00:39:14.221Z,5.10
2024-04-12T00:39:46.902Z,4.90
2024-04-12T00:40:19.620Z,3.50
2024-04-12T00:40:52.292Z,5.00
2024-04-12T00:41:24.939Z,5.90
2024-04-12T00:41:57.638Z,4.70
2024-04-12T00:42:30.325Z,6.00
2024-04-12T00:43:03.029Z,3.30
2024-04-12T00:43:35.718Z,5.00
2024-04-12T00:44:08.385Z,6.50
2024-04-12T00:44:41.158Z,5.50
2024-04-12T00:45:14.073Z,4.80
2024-04-12T00:45:46.758Z,4.80
2024-04-12T00:46:19.436Z,7.20
2024-04-12T00:46:52.127Z,4.60
2024-04-12T00:47:24.845Z,3.80
2024-04-12T00:47:57.626Z,5.10
2024-04-12T00:48:30.384Z,5.70
2024-04-12T00:49:03.265Z,5.20
2024-04-12T00:49:35.928Z,4.40
2024-04-12T00:50:08.623Z,6.00
2024-04-12T00:50:41.282Z,6.50
2024-04-12T00:51:13.998Z,6.90
2024-04-12T00:51:46.695Z,5.90
2024-04-12T00:52:19.372Z,5.80
2024-04-12T00:52:52.056Z,4.30
2024-04-12T00:53:24.750Z,4.90
2024-04-12T00:53:57.449Z,5.60
2024-04-12T00:54:30.115Z,5.70
2024-04-12T00:55:02.782Z,4.80
2024-04-12T00:55:33.880Z,4.10
2024-04-12T00:56:06.569Z,5.70
2024-04-12T00:56:39.268Z,5.90
2024-04-12T00:57:11.939Z,4.70
2024-04-12T00:57:44.620Z,5.80
2024-04-12T00:58:17.390Z,4.80
2024-04-12T00:58:50.048Z,6.60
2024-04-12T00:59:22.710Z,4.60
2024-04-12T00:59:55.437Z,4.20
2024-04-12T01:00:28.103Z,5.30
2024-04-12T01:01:00.821Z,5.30
2024-04-12T01:01:33.563Z,6.60
2024-04-12T01:02:06.257Z,4.20
2024-04-12T01:02:38.978Z,5.60
2024-04-12T01:03:11.774Z,3.60
2024-04-12T01:03:44.694Z,6.40
2024-04-12T01:04:17.540Z,4.30
2024-04-12T01:04:50.197Z,5.50
2024-04-12T01:05:22.879Z,5.60
2024-04-12T01:05:55.562Z,6.20
2024-04-12T01:06:28.264Z,6.30
2024-04-12T01:07:00.937Z,6.60
2024-04-12T01:07:33.590Z,5.50
2024-04-12T01:08:06.290Z,4.50
2024-04-12T01:08:38.988Z,5.00
2024-04-12T01:09:11.681Z,3.70
2024-04-12T01:09:44.381Z,5.80
2024-04-12T01:10:17.035Z,6.80
2024-04-12T01:10:49.771Z,4.20
2024-04-12T01:11:22.508Z,6.50
2024-04-12T01:11:55.198Z,6.30
2024-04-12T01:12:27.867Z,6.10
2024-04-12T01:13:00.625Z,6.10
2024-04-12T01:13:33.274Z,4.30
2024-04-12T01:14:05.949Z,6.10
2024-04-12T01:14:38.638Z,3.60
2024-04-12T01:15:11.356Z,4.90
2024-04-12T01:15:44.050Z,4.70
2024-04-12T01:16:16.754Z,3.00
2024-04-12T01:16:47.847Z,5.00
2024-04-12T01:17:20.521Z,5.90
2024-04-12T01:17:53.279Z,5.10
2024-04-12T01:18:26.082Z,6.10
2024-04-12T01:18:58.775Z,5.00
2024-04-12T01:19:31.489Z,7.30
2024-04-12T01:20:04.133Z,4.40
2024-04-12T01:20:37.446Z,7.80
2024-04-12T01:21:03.967Z,7.00
2024-04-12T01:21:36.621Z,4.00
2024-04-12T01:22:09.297Z,4.90
2024-04-12T01:22:42.018Z,4.00
2024-04-12T01:23:14.689Z,6.10
2024-04-12T01:23:47.405Z,5.00
2024-04-12T01:24:20.071Z,6.50
2024-04-12T01:24:52.753Z,5.30
2024-04-12T01:25:25.429Z,7.00
2024-04-12T01:25:58.120Z,4.10
2024-04-12T01:26:30.815Z,5.90
2024-04-12T01:27:03.504Z,8.90
2024-04-12T01:27:36.209Z,6.60
2024-04-12T01:28:08.881Z,6.70
2024-04-12T01:28:41.557Z,4.40
2024-04-12T01:29:14.237Z,4.80
2024-04-12T01:29:46.944Z,6.30
2024-04-12T01:30:19.599Z,3.40
2024-04-12T01:30:52.267Z,5.50
2024-04-12T01:31:24.947Z,4.70
2024-04-12T01:31:57.655Z,4.60
2024-04-12T01:32:30.385Z,5.90
2024-04-12T01:33:03.286Z,4.10
2024-04-12T01:33:36.155Z,5.30
2024-04-12T01:34:08.935Z,6.40
2024-04-12T01:34:41.611Z,6.70
2024-04-12T01:35:14.279Z,6.40
2024-04-12T01:35:47.432Z,3.30
2024-04-12T01:36:18.229Z,5.00
2024-04-12T01:36:50.899Z,5.40
2024-04-12T01:37:23.569Z,6.10
2024-04-12T01:37:56.260Z,4.30
2024-04-12T01:38:28.935Z,3.60
2024-04-12T01:39:01.707Z,4.30
2024-04-12T01:39:34.430Z,5.30
2024-04-12T01:40:07.103Z,4.20
2024-04-12T01:40:39.797Z,5.90
2024-04-12T01:41:12.481Z,5.30
2024-04-12T01:41:45.178Z,4.30
2024-04-12T01:42:17.858Z,3.80
2024-04-12T01:42:50.538Z,4.70
2024-04-12T01:43:24.986Z,5.40
2024-04-12T01:43:51.693Z,5.30
2024-04-12T01:44:24.373Z,7.00
2024-04-12T01:44:57.107Z,7.60
2024-04-12T01:45:29.911Z,4.60
2024-04-12T01:46:02.591Z,6.00
2024-04-12T01:46:35.254Z,6.60
2024-04-12T01:47:07.932Z,5.40
2024-04-12T01:47:40.726Z,6.50
2024-04-12T01:48:13.556Z,5.40
2024-04-12T01:48:46.331Z,6.20
2024-04-12T01:49:19.124Z,4.20
2024-04-12T01:49:51.775Z,5.50
2024-04-12T01:50:24.624Z,6.20
2024-04-12T01:50:57.341Z,6.70
2024-04-12T01:51:29.991Z,6.40
2024-04-12T01:52:02.656Z,5.00
2024-04-12T01:52:35.355Z,5.30
2024-04-12T01:53:08.045Z,7.70
2024-04-12T01:53:40.747Z,6.70
2024-04-12T01:54:13.448Z,4.80
2024-04-12T01:54:46.126Z,4.90
2024-04-12T01:55:18.796Z,4.80
2024-04-12T01:55:51.490Z,6.00
2024-04-12T01:56:24.155Z,5.10
2024-04-12T01:56:56.873Z,4.90
2024-04-12T01:57:29.582Z,7.40
2024-04-12T01:58:02.432Z,6.30
2024-04-12T01:58:35.166Z,6.10
2024-04-12T01:59:07.875Z,5.00
2024-04-12T01:59:40.547Z,6.60
2024-04-12T02:00:13.279Z,6.50
2024-04-12T02:00:46.002Z,5.00
2024-04-12T02:01:18.728Z,10.00
2024-04-12T02:01:51.393Z,6.90
2024-04-12T02:02:24.082Z,7.40
2024-04-12T02:02:56.850Z,6.40
2024-04-12T02:03:29.676Z,6.20
2024-04-12T02:04:02.567Z,7.90
2024-04-12T02:04:35.263Z,6.40
2024-04-12T02:05:08.004Z,5.40
2024-04-12T02:05:40.735Z,5.20
2024-04-12T02:06:13.419Z,6.10
2024-04-12T02:06:46.109Z,5.90
2024-04-12T02:07:18.785Z,6.80
2024-04-12T02:07:51.486Z,6.00
2024-04-12T02:08:24.260Z,6.20
2024-04-12T02:08:56.993Z,6.40
2024-04-12T02:09:29.650Z,6.60
2024-04-12T02:10:02.316Z,4.90
2024-04-12T02:10:35.186Z,5.90
2024-04-12T02:11:08.014Z,6.30
2024-04-12T02:11:40.740Z,8.20
2024-04-12T02:12:13.501Z,7.50
2024-04-12T02:12:46.167Z,6.70
2024-04-12T02:13:19.861Z,7.20
2024-04-12T02:13:46.680Z,7.30
2024-04-12T02:14:19.361Z,5.70
2024-04-12T02:14:52.092Z,5.60
2024-04-12T02:15:24.789Z,4.70
2024-04-12T02:15:57.486Z,6.10
2024-04-12T02:16:30.145Z,6.30
2024-04-12T02:17:02.818Z,6.80
2024-04-12T02:17:35.559Z,5.70
2024-04-12T02:18:08.350Z,6.70
2024-04-12T02:18:41.331Z,6.30
2024-04-12T02:19:07.832Z,6.10
2024-04-12T02:19:40.553Z,6.10
2024-04-12T02:20:13.211Z,7.00
2024-04-12T02:20:45.987Z,6.20
2024-04-12T02:21:18.671Z,6.50
2024-04-12T02:21:51.365Z,6.10
2024-04-12T02:22:24.013Z,5.80
2024-04-12T02:22:56.723Z,6.70
2024-04-12T02:23:29.394Z,6.70
2024-04-12T02:24:02.089Z,6.00
2024-04-12T02:24:34.765Z,6.10
2024-04-12T02:25:07.457Z,6.40
2024-04-12T02:25:40.111Z,7.60
2024-04-12T02:26:12.784Z,6.70
2024-04-12T02:26:45.464Z,7.00
2024-04-12T02:27:18.174Z,6.90
2024-04-12T02:27:50.914Z,6.70
2024-04-12T02:28:23.612Z,7.60
2024-04-12T02:28:57.053Z,7.00
2024-04-12T02:29:23.395Z,6.80
2024-04-12T02:29:56.121Z,7.60
2024-04-12T02:30:28.784Z,6.00
2024-04-12T02:31:01.460Z,6.70
2024-04-12T02:31:34.157Z,6.20
2024-04-12T02:32:06.854Z,6.30
2024-04-12T02:32:39.608Z,6.70
2024-04-12T02:33:12.416Z,5.90
2024-04-12T02:33:45.163Z,7.30
2024-04-12T02:34:17.866Z,6.80
2024-04-12T02:34:50.562Z,7.40
2024-04-12T02:35:21.714Z,6.40
2024-04-12T02:35:54.436Z,7.00
2024-04-12T02:36:27.097Z,7.50
2024-04-12T02:36:59.777Z,7.30
2024-04-12T02:37:32.460Z,6.80
2024-04-12T02:38:06.058Z,6.30
2024-04-12T02:38:32.191Z,7.40
2024-04-12T02:39:04.919Z,5.60
2024-04-12T02:39:37.570Z,6.60
2024-04-12T02:40:10.254Z,6.70
2024-04-12T02:40:42.961Z,5.50
2024-04-12T02:41:16.480Z,8.30
2024-04-12T02:41:43.129Z,6.60
2024-04-12T02:42:15.814Z,6.60
2024-04-12T02:42:48.527Z,7.70
2024-04-12T02:43:21.186Z,6.20
2024-04-12T02:43:54.004Z,5.70
2024-04-12T02:44:26.681Z,5.00
2024-04-12T02:44:59.404Z,6.90
2024-04-12T02:45:32.091Z,7.60
2024-04-12T02:46:05.572Z,6.20
2024-04-12T02:46:31.725Z,6.60
2024-04-12T02:47:04.461Z,8.00
2024-04-12T02:47:37.235Z,6.30
2024-04-12T02:48:10.082Z,6.30
2024-04-12T02:48:42.848Z,5.60
2024-04-12T02:49:15.565Z,7.40
2024-04-12T02:49:48.248Z,7.20
2024-04-12T02:50:20.935Z,5.50
2024-04-12T02:50:52.041Z,5.80
2024-04-12T02:51:24.892Z,6.10
2024-04-12T02:51:57.536Z,6.80
2024-04-12T02:52:30.214Z,5.90
2024-04-12T02:53:02.906Z,6.50
2024-04-12T02:53:35.607Z,6.90
2024-04-12T02:54:08.340Z,7.90
2024-04-12T02:54:41.057Z,5.90
2024-04-12T02:55:12.134Z,8.70
2024-04-12T02:55:44.804Z,5.50
2024-04-12T02:56:17.479Z,6.50
2024-04-12T02:56:51.103Z,8.00
2024-04-12T02:57:17.327Z,6.50
2024-04-12T02:57:50.023Z,8.30
2024-04-12T02:58:22.703Z,6.30
2024-04-12T02:58:55.367Z,6.80
2024-04-12T02:59:28.044Z,5.10
2024-04-12T03:00:00.816Z,6.10
2024-04-12T03:00:33.561Z,8.20
2024-04-12T03:01:06.240Z,10.90
2024-04-12T03:01:38.916Z,7.50
2024-04-12T03:02:13.902Z,7.10
2024-04-12T03:02:40.186Z,8.10
2024-04-12T03:03:12.910Z,5.10
2024-04-12T03:03:45.720Z,7.50
2024-04-12T03:04:18.431Z,6.60
2024-04-12T03:04:51.087Z,5.80
2024-04-12T03:05:23.765Z,6.30
2024-04-12T03:05:56.440Z,6.70
2024-04-12T03:06:29.130Z,6.60
2024-04-12T03:07:01.801Z,6.10
2024-04-12T03:07:34.496Z,6.00
2024-04-12T03:08:05.585Z,7.10
2024-04-12T03:08:38.290Z,6.30
2024-04-12T03:09:10.980Z,6.30
2024-04-12T03:09:43.713Z,5.70
2024-04-12T03:10:16.383Z,5.80
2024-04-12T03:10:49.061Z,5.30
2024-04-12T03:11:21.755Z,7.70
2024-04-12T03:11:54.586Z,7.10
2024-04-12T03:12:27.301Z,6.70
2024-04-12T03:12:59.981Z,6.70
2024-04-12T03:13:32.671Z,7.90
2024-04-12T03:14:05.410Z,7.20
2024-04-12T03:14:38.248Z,8.70
2024-04-12T03:15:10.950Z,6.60
2024-04-12T03:15:43.598Z,5.60
2024-04-12T03:16:16.314Z,5.20
2024-04-12T03:16:49.028Z,4.50
2024-04-12T03:17:21.798Z,5.40
2024-04-12T03:17:54.580Z,5.60
2024-04-12T03:18:29.015Z,7.20
2024-04-12T03:18:55.427Z,5.00
2024-04-12T03:19:28.607Z,5.80
2024-04-12T03:19:54.785Z,5.80
2024-04-12T03:20:27.479Z,5.40
2024-04-12T03:21:00.167Z,5.10
2024-04-12T03:21:32.838Z,6.70
2024-04-12T03:22:05.525Z,6.90
2024-04-12T03:22:38.207Z,6.60
2024-04-12T03:23:10.876Z,4.90
2024-04-12T03:23:43.571Z,5.40
2024-04-12T03:24:16.258Z,5.90
2024-04-12T03:24:47.383Z,6.30
2024-04-12T03:25:20.053Z,6.10
2024-04-12T03:25:52.729Z,7.80
2024-04-12T03:26:25.411Z,7.10
2024-04-12T03:26:58.164Z,6.90
2024-04-12T03:27:30.832Z,6.40
2024-04-12T03:28:03.515Z,7.00
2024-04-12T03:28:36.199Z,5.00
2024-04-12T03:29:08.871Z,8.40
2024-04-12T03:29:41.568Z,6.70
2024-04-12T03:30:14.383Z,8.00
2024-04-12T03:30:47.057Z,8.00
2024-04-12T03:31:19.735Z,6.10
2024-04-12T03:31:52.442Z,4.40
2024-04-12T03:32:25.203Z,9.30
2024-04-12T03:32:58.024Z,6.50
2024-04-12T03:33:30.812Z,7.50
2024-04-12T03:34:03.533Z,6.50
2024-04-12T03:34:36.204Z,6.20
2024-04-12T03:35:08.883Z,6.20
2024-04-12T03:35:41.616Z,5.40
2024-04-12T03:36:14.274Z,6.30
2024-04-12T03:36:49.556Z,6.80
2024-04-12T03:37:16.349Z,8.10
2024-04-12T03:37:49.063Z,8.10
2024-04-12T03:38:21.761Z,7.40
2024-04-12T03:38:54.592Z,7.20
2024-04-12T03:39:27.269Z,6.10
2024-04-12T03:39:59.971Z,6.50
2024-04-12T03:40:32.630Z,5.90
2024-04-12T03:41:05.307Z,5.40
2024-04-12T03:41:38.008Z,7.40
2024-04-12T03:42:10.851Z,6.80
2024-04-12T03:42:43.540Z,6.00
2024-04-12T03:43:16.235Z,10.30
2024-04-12T03:43:48.911Z,9.00
2024-04-12T03:44:21.585Z,5.20
2024-04-12T03:44:54.280Z,5.70
2024-04-12T03:45:26.942Z,5.70
2024-04-12T03:45:59.596Z,6.40
2024-04-12T03:46:32.301Z,6.50
2024-04-12T03:47:06.470Z,6.60
2024-04-12T03:47:32.971Z,5.40
2024-04-12T03:48:06.011Z,4.90
2024-04-12T03:48:32.540Z,6.80
2024-04-12T03:48:58.874Z,5.30
2024-04-12T03:49:31.587Z,6.10
2024-04-12T03:50:04.250Z,6.60
2024-04-12T03:50:36.955Z,6.80
2024-04-12T03:51:09.697Z,8.00
2024-04-12T03:51:42.354Z,7.50
2024-04-12T03:52:16.756Z,7.20
2024-04-12T03:52:45.687Z,8.40
2024-04-12T03:53:12.316Z,7.30
2024-04-12T03:53:45.072Z,6.70
2024-04-12T03:54:17.733Z,6.80
2024-04-12T03:54:50.393Z,9.20
2024-04-12T03:55:23.074Z,7.20
2024-04-12T03:55:55.819Z,5.60
2024-04-12T03:56:28.470Z,7.60
2024-04-12T03:57:01.207Z,7.20
2024-04-12T03:57:33.860Z,9.10
2024-04-12T03:58:06.540Z,11.20
2024-04-12T03:58:39.211Z,10.80
2024-04-12T03:59:11.912Z,13.50
2024-04-12T03:59:44.629Z,13.20
2024-04-12T04:00:17.409Z,11.00
2024-04-12T04:00:50.104Z,10.20
2024-04-12T04:01:22.820Z,12.50
2024-04-12T04:01:55.551Z,11.50
2024-04-12T04:02:28.266Z,9.60
2024-04-12T04:03:01.143Z,8.60
2024-04-12T04:03:33.911Z,7.90
2024-04-12T04:04:06.643Z,9.50
2024-04-12T04:04:39.389Z,8.80
2024-04-12T04:05:12.065Z,7.10
2024-04-12T04:05:44.757Z,6.80
2024-04-12T04:06:15.870Z,7.60
2024-04-12T04:06:48.525Z,8.90
2024-04-12T04:07:21.622Z,6.90
2024-04-12T04:07:47.964Z,6.70
2024-04-12T04:08:20.690Z,8.30
2024-04-12T04:08:53.484Z,8.10
2024-04-12T04:09:26.207Z,8.20
2024-04-12T04:09:58.872Z,7.60
2024-04-12T04:10:32.673Z,6.40
2024-04-12T04:10:58.861Z,5.30
2024-04-12T04:11:31.568Z,7.40
2024-04-12T04:12:04.340Z,8.40
2024-04-12T04:12:37.093Z,8.80
2024-04-12T04:13:10.471Z,8.00
2024-04-12T04:13:37.516Z,6.70
2024-04-12T04:14:10.193Z,9.20
2024-04-12T04:14:42.943Z,10.50
2024-04-12T04:15:15.665Z,9.30
2024-04-12T04:15:48.340Z,9.10
2024-04-12T04:16:20.992Z,8.20
2024-04-12T04:16:53.671Z,6.50
2024-04-12T04:17:26.438Z,5.70
2024-04-12T04:17:59.222Z,7.80
2024-04-12T04:18:32.035Z,6.60
2024-04-12T04:19:05.211Z,6.00
2024-04-12T04:19:35.859Z,8.10
2024-04-12T04:20:09.550Z,7.30
2024-04-12T04:20:35.916Z,4.90
2024-04-12T04:21:08.650Z,7.80
2024-04-12T04:21:41.320Z,7.20
2024-04-12T04:22:14.017Z,7.20
2024-04-12T04:22:46.698Z,7.00
2024-04-12T04:23:19.379Z,7.30
2024-04-12T04:23:52.079Z,7.30
2024-04-12T04:24:24.727Z,6.50
2024-04-12T04:24:57.409Z,7.80
2024-04-12T04:25:30.157Z,7.20
2024-04-12T04:26:02.813Z,8.40
2024-04-12T04:26:35.552Z,9.00
2024-04-12T04:27:08.291Z,8.20
2024-04-12T04:27:39.333Z,8.70
2024-04-12T04:28:12.044Z,5.70
2024-04-12T04:28:44.738Z,8.20
2024-04-12T04:29:17.395Z,8.00
2024-04-12T04:29:50.109Z,7.90
2024-04-12T04:30:22.759Z,10.50
2024-04-12T04:30:55.420Z,8.20
2024-04-12T04:31:28.094Z,7.10
2024-04-12T04:32:00.855Z,7.90
2024-04-12T04:32:33.733Z,8.00
2024-04-12T04:33:00.142Z,7.80
2024-04-12T04:33:32.907Z,8.70
2024-04-12T04:34:05.599Z,7.00
2024-04-12T04:34:38.271Z,6.90
2024-04-12T04:35:11.731Z,7.50
2024-04-12T04:35:42.076Z,8.10
2024-04-12T04:36:14.747Z,7.90
2024-04-12T04:36:47.409Z,12.90
2024-04-12T04:37:23.379Z,11.80
2024-04-12T04:37:52.208Z,8.90
2024-04-12T04:38:18.379Z,10.30
2024-04-12T04:38:51.048Z,11.70
2024-04-12T04:39:23.718Z,9.90
2024-04-12T04:39:56.387Z,9.70
2024-04-12T04:40:29.067Z,8.20
2024-04-12T04:41:01.742Z,7.00
2024-04-12T04:41:34.449Z,7.30
2024-04-12T04:42:07.199Z,7.60
2024-04-12T04:42:39.898Z,8.10
2024-04-12T04:43:12.579Z,7.30
2024-04-12T04:43:45.254Z,8.10
2024-04-12T04:44:17.931Z,7.90
2024-04-12T04:44:50.678Z,8.10
2024-04-12T04:45:21.734Z,7.00
2024-04-12T04:45:54.397Z,7.80
2024-04-12T04:46:27.068Z,8.50
2024-04-12T04:46:59.738Z,6.00
2024-04-12T04:47:32.475Z,6.00
2024-04-12T04:48:05.299Z,6.20
2024-04-12T04:48:38.337Z,9.00
2024-04-12T04:49:04.749Z,7.80
2024-04-12T04:49:37.457Z,7.80
2024-04-12T04:50:10.126Z,7.60
2024-04-12T04:50:42.850Z,6.40
2024-04-12T04:51:15.660Z,8.20
2024-04-12T04:51:48.342Z,7.50
2024-04-12T04:52:21.019Z,6.40
2024-04-12T04:52:53.695Z,6.80
2024-04-12T04:53:26.383Z,8.00
2024-04-12T04:53:59.096Z,8.90
2024-04-12T04:54:31.792Z,7.10
2024-04-12T04:55:04.442Z,9.00
2024-04-12T04:55:37.132Z,9.80
2024-04-12T04:56:09.798Z,8.10
2024-04-12T04:56:42.494Z,8.30
2024-04-12T04:57:13.595Z,8.10
2024-04-12T04:57:46.276Z,8.40
2024-04-12T04:58:19.045Z,7.80
2024-04-12T04:58:51.718Z,8.80
2024-04-12T04:59:24.388Z,9.30
2024-04-12T04:59:57.113Z,6.60
2024-04-12T05:00:29.765Z,9.20
2024-04-12T05:01:02.549Z,8.60
2024-04-12T05:01:35.204Z,7.80
2024-04-12T05:02:07.923Z,9.20
2024-04-12T05:02:40.627Z,7.50
2024-04-12T05:03:13.361Z,9.60
2024-04-12T05:03:46.058Z,9.00
2024-04-12T05:04:18.738Z,9.90
2024-04-12T05:04:51.402Z,8.90
2024-04-12T05:05:26.034Z,9.80
2024-04-12T05:05:53.302Z,9.70
2024-04-12T05:06:26.127Z,8.40
2024-04-12T05:06:58.796Z,9.40
2024-04-12T05:07:31.495Z,9.60
2024-04-12T05:08:04.181Z,8.60
2024-04-12T05:08:36.930Z,9.90
2024-04-12T05:09:09.658Z,8.70
2024-04-12T05:09:42.317Z,9.20
2024-04-12T05:10:14.992Z,7.60
2024-04-12T05:10:47.700Z,7.60
2024-04-12T05:11:20.347Z,7.30
2024-04-12T05:11:53.095Z,7.40
2024-04-12T05:12:25.822Z,8.30
2024-04-12T05:12:58.526Z,7.20
2024-04-12T05:13:31.212Z,8.00
2024-04-12T05:14:03.900Z,7.40
2024-04-12T05:14:36.601Z,8.40
2024-04-12T05:15:09.373Z,8.40
2024-04-12T05:15:42.388Z,7.90
2024-04-12T05:16:15.132Z,7.30
2024-04-12T05:16:47.809Z,7.80
2024-04-12T05:17:19.062Z,7.90
2024-04-12T05:17:50.142Z,9.50
2024-04-12T05:18:23.061Z,8.50
2024-04-12T05:18:55.857Z,11.30
2024-04-12T05:19:28.595Z,8.70
2024-04-12T05:20:01.711Z,8.60
2024-04-12T05:20:28.048Z,9.40
2024-04-12T05:21:00.740Z,8.00
2024-04-12T05:21:33.415Z,7.30
2024-04-12T05:22:06.095Z,9.80
2024-04-12T05:22:38.806Z,8.70
2024-04-12T05:23:11.489Z,7.60
2024-04-12T05:23:44.235Z,8.10
2024-04-12T05:24:15.358Z,8.50
2024-04-12T05:24:48.003Z,7.20
2024-04-12T05:25:20.674Z,9.60
2024-04-12T05:25:53.347Z,8.30
2024-04-12T05:26:26.022Z,9.20
2024-04-12T05:26:58.747Z,7.90
2024-04-12T05:27:31.406Z,8.80
2024-04-12T05:28:04.094Z,7.40
2024-04-12T05:28:36.778Z,8.50
2024-04-12T05:29:09.448Z,7.60
2024-04-12T05:29:42.597Z,9.10
2024-04-12T05:30:08.966Z,8.80
2024-04-12T05:30:41.691Z,8.90
2024-04-12T05:31:14.383Z,8.30
2024-04-12T05:31:47.021Z,8.40
2024-04-12T05:32:19.860Z,8.80
2024-04-12T05:32:52.659Z,10.30
2024-04-12T05:33:25.487Z,8.60
2024-04-12T05:33:58.231Z,10.30
2024-04-12T05:34:30.900Z,11.00
2024-04-12T05:35:03.574Z,7.30
2024-04-12T05:35:36.483Z,7.70
2024-04-12T05:36:09.279Z,9.70
2024-04-12T05:36:41.950Z,8.20
2024-04-12T05:37:14.608Z,8.60
2024-04-12T05:37:49.599Z,9.50
2024-04-12T05:38:17.220Z,11.70
2024-04-12T05:38:49.943Z,9.60
2024-04-12T05:39:22.615Z,11.00
2024-04-12T05:39:55.274Z,10.40
2024-04-12T05:40:27.995Z,10.50
2024-04-12T05:41:00.670Z,10.90
2024-04-12T05:41:33.364Z,12.20
2024-04-12T05:42:04.468Z,10.60
2024-04-12T05:42:37.177Z,8.90
2024-04-12T05:43:09.838Z,10.60
2024-04-12T05:43:42.539Z,7.60
2024-04-12T05:44:15.235Z,10.10
2024-04-12T05:44:47.932Z,7.50
2024-04-12T05:45:20.655Z,10.80
2024-04-12T05:45:53.337Z,10.80
2024-04-12T05:46:26.056Z,11.80
2024-04-12T05:46:58.783Z,15.20
2024-04-12T05:47:31.536Z,9.60
2024-04-12T05:48:04.330Z,10.80
2024-04-12T05:48:37.076Z,10.70
2024-04-12T05:49:09.778Z,11.20
2024-04-12T05:49:42.447Z,9.20
2024-04-12T05:50:15.134Z,7.10
2024-04-12T05:50:47.963Z,8.40
2024-04-12T05:51:22.657Z,8.90
2024-04-12T05:51:49.560Z,10.40
2024-04-12T05:52:22.242Z,8.00
2024-04-12T05:52:54.928Z,8.60
2024-04-12T05:53:27.627Z,8.70
2024-04-12T05:54:00.310Z,8.20
2024-04-12T05:54:32.995Z,6.90
2024-04-12T05:55:05.679Z,10.00
2024-04-12T05:55:38.341Z,11.70
2024-04-12T05:56:11.024Z,10.40
2024-04-12T05:56:43.768Z,8.30
2024-04-12T05:57:16.523Z,12.60
2024-04-12T05:57:49.211Z,13.70
2024-04-12T05:58:21.894Z,12.20
2024-04-12T05:58:54.718Z,11.80
2024-04-12T05:59:27.381Z,10.70
2024-04-12T06:00:00.178Z,12.10
2024-04-12T06:00:31.213Z,8.70
2024-04-12T06:01:03.936Z,8.80
2024-04-12T06:01:36.675Z,9.30
2024-04-12T06:02:09.349Z,7.80
2024-04-12T06:02:42.096Z,9.10
2024-04-12T06:03:14.879Z,9.60
2024-04-12T06:03:48.603Z,8.50
2024-04-12T06:04:15.396Z,10.00
2024-04-12T06:04:48.069Z,8.10
2024-04-12T06:05:20.746Z,8.40
2024-04-12T06:05:53.446Z,10.20
2024-04-12T06:06:26.439Z,8.50
2024-04-12T06:06:52.638Z,7.40
2024-04-12T06:07:25.296Z,9.70
2024-04-12T06:07:57.986Z,8.40
2024-04-12T06:08:30.668Z,8.80
2024-04-12T06:09:03.549Z,9.10
2024-04-12T06:09:36.264Z,8.00
2024-04-12T06:10:08.910Z,10.50
2024-04-12T06:10:41.584Z,9.70
2024-04-12T06:11:14.394Z,10.80
2024-04-12T06:11:47.162Z,8.00
2024-04-12T06:12:20.010Z,11.90
2024-04-12T06:12:52.769Z,9.40
2024-04-12T06:13:25.517Z,8.70
2024-04-12T06:13:51.954Z,8.80
2024-04-12T06:14:24.629Z,11.30
2024-04-12T06:14:57.347Z,11.90
2024-04-12T06:15:30.037Z,9.90
2024-04-12T06:16:02.743Z,12.90
2024-04-12T06:16:35.487Z,10.00
2024-04-12T06:17:08.189Z,7.80
2024-04-12T06:17:40.996Z,9.80
2024-04-12T06:18:13.783Z,13.90
2024-04-12T06:18:46.453Z,9.80
2024-04-12T06:19:19.112Z,12.50
2024-04-12T06:19:51.804Z,8.30
2024-04-12T06:20:24.472Z,10.30
2024-04-12T06:20:57.188Z,11.00
2024-04-12T06:21:29.854Z,11.20
2024-04-12T06:22:02.540Z,12.30
2024-04-12T06:22:35.216Z,11.10
2024-04-12T06:23:07.919Z,15.00
2024-04-12T06:23:39.085Z,13.30
2024-04-12T06:24:11.813Z,11.70
2024-04-12T06:24:44.720Z,12.70
2024-04-12T06:25:17.397Z,10.20
2024-04-12T06:25:50.058Z,10.40
2024-04-12T06:26:22.751Z,10.50
2024-04-12T06:26:55.446Z,11.10
2024-04-12T06:27:28.103Z,11.50
2024-04-12T06:28:00.795Z,10.60
2024-04-12T06:28:33.478Z,11.30
2024-04-12T06:29:06.569Z,11.60
2024-04-12T06:29:38.438Z,11.80
2024-04-12T06:30:05.614Z,11.60
2024-04-12T06:30:31.875Z,11.60
2024-04-12T06:31:04.587Z,12.30
2024-04-12T06:31:37.275Z,12.40
2024-04-12T06:32:09.995Z,12.90
2024-04-12T06:32:42.864Z,12.70
2024-04-12T06:33:15.798Z,14.10
2024-04-12T06:33:48.627Z,13.90
2024-04-12T06:34:21.348Z,11.90
2024-04-12T06:34:54.034Z,13.60
2024-04-12T06:35:26.708Z,12.20
2024-04-12T06:35:59.487Z,13.30
2024-04-12T06:36:32.150Z,12.90
2024-04-12T06:37:04.834Z,14.50
2024-04-12T06:37:37.513Z,11.70
2024-04-12T06:38:08.604Z,12.20
2024-04-12T06:38:41.311Z,13.60
2024-04-12T06:39:14.026Z,11.40
2024-04-12T06:39:46.657Z,13.40
2024-04-12T06:40:19.357Z,12.10
2024-04-12T06:40:52.002Z,12.20
2024-04-12T06:41:24.718Z,12.40
2024-04-12T06:41:57.445Z,12.50
2024-04-12T06:42:30.102Z,10.60
2024-04-12T06:43:05.485Z,12.60
2024-04-12T06:43:32.738Z,12.00
2024-04-12T06:44:05.455Z,12.50
2024-04-12T06:44:38.123Z,11.50
2024-04-12T06:45:10.821Z,13.30
2024-04-12T06:45:43.558Z,13.90
2024-04-12T06:46:16.205Z,13.40
2024-04-12T06:46:48.938Z,10.90
2024-04-12T06:47:21.624Z,12.00
2024-04-12T06:47:54.338Z,13.50
2024-04-12T06:48:27.084Z,12.90
2024-04-12T06:49:01.380Z,12.60
2024-04-12T06:49:31.017Z,12.20
2024-04-12T06:50:03.661Z,12.50
2024-04-12T06:50:36.356Z,11.90
2024-04-12T06:51:09.093Z,14.90
2024-04-12T06:51:41.786Z,17.20
2024-04-12T06:52:14.506Z,14.40
2024-04-12T06:52:47.184Z,16.50
2024-04-12T06:53:19.914Z,11.80
2024-04-12T06:53:52.659Z,15.10
2024-04-12T06:54:25.433Z,9.80
2024-04-12T06:54:58.106Z,13.10
2024-04-12T06:55:30.823Z,12.00
2024-04-12T06:56:03.471Z,12.00
2024-04-12T06:56:36.189Z,11.90
2024-04-12T06:57:08.898Z,12.10
2024-04-12T06:57:41.544Z,11.50
2024-04-12T06:58:14.217Z,10.70
2024-04-12T06:58:46.931Z,11.50
2024-04-12T06:59:19.594Z,12.10
2024-04-12T06:59:52.293Z,11.30
2024-04-12T07:00:24.977Z,10.50
2024-04-12T07:00:57.650Z,11.30
2024-04-12T07:01:30.339Z,11.90
2024-04-12T07:02:03.045Z,12.80
2024-04-12T07:02:35.796Z,10.60
2024-04-12T07:03:08.639Z,10.70
2024-04-12T07:03:41.495Z,11.60
2024-04-12T07:04:12.535Z,9.80
2024-04-12T07:04:45.302Z,11.60
2024-04-12T07:05:17.997Z,11.00
2024-04-12T07:05:50.760Z,14.10
2024-04-12T07:06:23.408Z,11.80
2024-04-12T07:06:56.075Z,11.00
2024-04-12T07:07:28.793Z,11.90
2024-04-12T07:08:01.465Z,14.30